Time;durP1;ratioP1;P1;durP2;ratioP2;P2;SDS_P1;SDS_P2;PMS_P1;PMS_P2;Temp;Humidity;BMP_temperature;BMP_pressure;BME280_temperature;BME280_humidity;BME280_pressure;Samples;Min_cycle;Max_cycle;Signal;HPM_P1;HPM_P2
2021/09/06 00:00:14;;;;;;;20.10;10.40;;;;;;;;;;4915987;29;20052;-47
2021/09/06 00:02:42;;;;;;;11.57;9.23;;;;;;;;;;4898278;29;20055;-47
2021/09/06 00:05:10;;;;;;;11.90;9.02;;;;;;;;;;4898959;29;20564;-45
2021/09/06 00:07:37;;;;;;;13.52;10.07;;;;;;;;;;4898958;29;20056;-44
2021/09/06 00:10:20;;;;;;;12.45;9.07;;;;;;;;;;4899083;29;20104;-46
2021/09/06 00:12:47;;;;;;;12.97;9.57;;;;;;;;;;4897724;29;20581;-46
2021/09/06 00:15:14;;;;;;;13.48;9.77;;;;;;;;;;4893914;29;20049;-45
2021/09/06 00:17:41;;;;;;;11.43;9.02;;;;;;;;;;4882342;29;20099;-47
2021/09/06 00:20:08;;;;;;;11.85;8.88;;;;;;;;;;4895105;29;20460;-49
2021/09/06 00:22:35;;;;;;;11.90;8.98;;;;;;;;;;4895236;29;20040;-44
2021/09/06 00:25:02;;;;;;;11.57;9.20;;;;;;;;;;4898269;29;20053;-45
2021/09/06 00:27:29;;;;;;;12.18;9.60;;;;;;;;;;4899021;29;20044;-44
2021/09/06 00:30:07;;;;;;;13.32;9.80;;;;;;;;;;4898589;29;20511;-45
2021/09/06 00:32:35;;;;;;;11.48;9.50;;;;;;;;;;4898759;29;20044;-45
2021/09/06 00:35:01;;;;;;;11.70;9.38;;;;;;;;;;4907705;29;20082;-45
2021/09/06 00:37:29;;;;;;;12.93;9.82;;;;;;;;;;4901517;29;20056;-46
2021/09/06 00:39:56;;;;;;;12.52;9.80;;;;;;;;;;4897554;29;20052;-44
2021/09/06 00:42:23;;;;;;;12.80;9.57;;;;;;;;;;4893121;29;20040;-45
2021/09/06 00:44:50;;;;;;;13.27;9.73;;;;;;;;;;4896119;29;20092;-50
2021/09/06 00:47:17;;;;;;;13.95;9.40;;;;;;;;;;4880516;29;20421;-46
2021/09/06 00:49:43;;;;;;;12.70;9.70;;;;;;;;;;4898675;29;20044;-46
2021/09/06 00:52:10;;;;;;;13.15;9.75;;;;;;;;;;4903458;29;20498;-49
2021/09/06 00:54:37;;;;;;;12.30;9.43;;;;;;;;;;4916812;29;20048;-46
2021/09/06 00:57:04;;;;;;;16.17;10.27;;;;;;;;;;4906015;29;20044;-46
2021/09/06 00:59:32;;;;;;;13.38;10.23;;;;;;;;;;4898345;29;20048;-46
2021/09/06 01:01:59;;;;;;;13.48;10.25;;;;;;;;;;4904225;29;20048;-46
2021/09/06 01:04:28;;;;;;;13.25;10.25;;;;;;;;;;4884936;29;20092;-45
2021/09/06 01:07:24;;;;;;;14.60;9.65;;;;;;;;;;4897408;29;20060;-46
2021/09/06 01:10:12;;;;;;;12.73;9.32;;;;;;;;;;4878205;29;20072;-45
2021/09/06 01:12:58;;;;;;;13.73;10.10;;;;;;;;;;4907931;29;20122;-47
2021/09/06 01:15:28;;;;;;;13.18;9.20;;;;;;;;;;4901801;29;20096;-46
2021/09/06 01:17:55;;;;;;;12.73;9.65;;;;;;;;;;4896365;29;20040;-48
2021/09/06 01:20:25;;;;;;;13.32;9.77;;;;;;;;;;4891705;29;20502;-47
2021/09/06 01:22:57;;;;;;;13.82;11.05;;;;;;;;;;4895948;29;20096;-49
2021/09/06 01:25:41;;;;;;;13.55;10.25;;;;;;;;;;4896470;29;20051;-46
2021/09/06 01:28:09;;;;;;;13.07;10.23;;;;;;;;;;4893101;29;20136;-47
2021/09/06 01:30:37;;;;;;;12.50;9.00;;;;;;;;;;4919119;29;20131;-46
2021/09/06 01:33:04;;;;;;;12.95;9.88;;;;;;;;;;4896473;29;20045;-47
2021/09/06 01:35:31;;;;;;;13.35;9.93;;;;;;;;;;4882478;29;20053;-46
2021/09/06 01:37:58;;;;;;;13.88;10.20;;;;;;;;;;4894228;29;20463;-49
2021/09/06 01:40:25;;;;;;;13.88;10.43;;;;;;;;;;4896266;29;20041;-46
2021/09/06 01:42:53;;;;;;;14.40;10.80;;;;;;;;;;4888470;29;20041;-47
2021/09/06 01:45:21;;;;;;;14.38;10.30;;;;;;;;;;4877204;29;20045;-46
2021/09/06 01:47:48;;;;;;;17.17;11.10;;;;;;;;;;4908404;29;20585;-48
2021/09/06 01:50:16;;;;;;;14.27;10.68;;;;;;;;;;4895689;29;20056;-46
2021/09/06 01:52:51;;;;;;;16.33;11.20;;;;;;;;;;4895749;29;20044;-49
2021/09/06 01:55:19;;;;;;;15.48;11.10;;;;;;;;;;4911434;29;20047;-45
2021/09/06 01:57:50;;;;;;;13.00;10.25;;;;;;;;;;4895165;29;20048;-47
2021/09/06 02:00:20;;;;;;;14.02;10.55;;;;;;;;;;4877343;29;20093;-48
2021/09/06 02:02:47;;;;;;;13.63;10.25;;;;;;;;;;4908429;29;20555;-46
2021/09/06 02:05:19;;;;;;;13.95;10.50;;;;;;;;;;4912298;29;20072;-47
2021/09/06 02:07:51;;;;;;;14.60;10.48;;;;;;;;;;4895616;29;20059;-46
2021/09/06 02:10:19;;;;;;;14.00;10.88;;;;;;;;;;4895959;29;20079;-47
2021/09/06 02:12:47;;;;;;;13.57;10.23;;;;;;;;;;4895468;29;20455;-45
2021/09/06 02:15:18;;;;;;;16.20;11.70;;;;;;;;;;4895154;29;20045;-46
2021/09/06 02:17:45;;;;;;;13.65;10.38;;;;;;;;;;4895319;29;20048;-46
2021/09/06 02:20:14;;;;;;;13.48;10.65;;;;;;;;;;4895452;29;20510;-47
2021/09/06 02:22:41;;;;;;;14.07;9.80;;;;;;;;;;4894801;29;20044;-47
2021/09/06 02:25:08;;;;;;;14.10;10.60;;;;;;;;;;4877432;29;20049;-45
2021/09/06 02:27:36;;;;;;;15.32;11.52;;;;;;;;;;4889447;29;20050;-47
2021/09/06 02:30:16;;;;;;;13.75;10.52;;;;;;;;;;4897433;29;20127;-47
2021/09/06 02:32:42;;;;;;;13.32;10.48;;;;;;;;;;4897403;29;20051;-46
2021/09/06 02:35:27;;;;;;;14.50;11.05;;;;;;;;;;4901075;29;20047;-44
2021/09/06 02:37:55;;;;;;;16.08;10.90;;;;;;;;;;4895298;29;20044;-46
2021/09/06 02:40:22;;;;;;;13.52;10.38;;;;;;;;;;4896718;29;20060;-46
2021/09/06 02:42:49;;;;;;;15.07;10.80;;;;;;;;;;4903514;29;20050;-46
2021/09/06 02:45:15;;;;;;;14.70;11.05;;;;;;;;;;4914096;29;20519;-46
2021/09/06 02:47:48;;;;;;;14.00;11.23;;;;;;;;;;4899798;29;20104;-47
2021/09/06 02:50:16;;;;;;;13.07;10.30;;;;;;;;;;4911243;29;20045;-46
2021/09/06 02:52:45;;;;;;;15.90;10.23;;;;;;;;;;4895068;29;20494;-47
2021/09/06 02:55:15;;;;;;;12.95;10.55;;;;;;;;;;4879513;29;20410;-46
2021/09/06 02:57:44;;;;;;;13.30;10.65;;;;;;;;;;4895169;29;20507;-47
2021/09/06 03:00:12;;;;;;;14.60;10.50;;;;;;;;;;4901984;29;20494;-46
2021/09/06 03:02:40;;;;;;;16.05;11.63;;;;;;;;;;4900155;29;20076;-45
2021/09/06 03:05:08;;;;;;;14.68;10.93;;;;;;;;;;4908549;29;20409;-47
2021/09/06 03:07:39;;;;;;;13.68;10.90;;;;;;;;;;4895327;29;20055;-47
2021/09/06 03:10:06;;;;;;;14.90;10.48;;;;;;;;;;4896013;29;20119;-45
2021/09/06 03:12:34;;;;;;;15.65;10.57;;;;;;;;;;4898056;29;20637;-44
2021/09/06 03:15:01;;;;;;;14.02;10.27;;;;;;;;;;4906460;29;20450;-45
2021/09/06 03:17:28;;;;;;;13.68;10.30;;;;;;;;;;4903048;29;20042;-44
2021/09/06 03:19:58;;;;;;;15.40;11.18;;;;;;;;;;4894761;29;20048;-45
2021/09/06 03:22:26;;;;;;;12.77;10.23;;;;;;;;;;4883161;29;20045;-44
2021/09/06 03:24:54;;;;;;;14.52;11.38;;;;;;;;;;4895305;29;20124;-44
2021/09/06 03:27:21;;;;;;;14.80;11.05;;;;;;;;;;4889930;29;20049;-45
2021/09/06 03:29:48;;;;;;;13.48;10.73;;;;;;;;;;4899692;29;20045;-45
2021/09/06 03:32:15;;;;;;;15.02;11.35;;;;;;;;;;4891262;29;20052;-47
2021/09/06 03:34:42;;;;;;;14.77;11.27;;;;;;;;;;4920379;29;20056;-44
2021/09/06 03:37:09;;;;;;;14.75;11.05;;;;;;;;;;4901900;29;20104;-45
2021/09/06 03:39:36;;;;;;;13.60;10.48;;;;;;;;;;4898528;29;20051;-45
2021/09/06 03:42:04;;;;;;;15.43;11.10;;;;;;;;;;4897164;29;20100;-45
2021/09/06 03:44:37;;;;;;;;;;;;;;;;;;4898655;29;20542;-45
2021/09/06 03:47:04;;;;;;;14.60;10.45;;;;;;;;;;4898051;29;19959;-45
2021/09/06 03:49:32;;;;;;;15.15;10.88;;;;;;;;;;4898545;29;20409;-45
2021/09/06 03:51:59;;;;;;;14.18;10.93;;;;;;;;;;4892680;29;20108;-45
2021/09/06 03:54:26;;;;;;;15.93;11.23;;;;;;;;;;4899176;29;20052;-47
2021/09/06 03:56:52;;;;;;;16.35;11.60;;;;;;;;;;4897775;29;20045;-46
2021/09/06 03:59:19;;;;;;;13.68;11.02;;;;;;;;;;4883050;29;20045;-44
2021/09/06 04:01:50;;;;;;;14.30;11.13;;;;;;;;;;4888123;29;20039;-44
2021/09/06 04:04:20;;;;;;;13.63;10.68;;;;;;;;;;4877057;29;20563;-45
2021/09/06 04:06:48;;;;;;;15.23;11.73;;;;;;;;;;4886999;29;20041;-44
2021/09/06 04:09:18;;;;;;;14.27;10.32;;;;;;;;;;4898050;29;20087;-46
2021/09/06 04:11:45;;;;;;;14.82;10.80;;;;;;;;;;4897663;29;20048;-44
2021/09/06 04:14:16;;;;;;;15.15;10.77;;;;;;;;;;4881457;29;20060;-48
2021/09/06 04:16:45;;;;;;;;;;;;;;;;;;4872107;29;20537;-44
2021/09/06 04:19:14;;;;;;;13.93;10.90;;;;;;;;;;4897638;29;19924;-45
2021/09/06 04:21:42;;;;;;;12.57;10.38;;;;;;;;;;4898851;29;20036;-44
2021/09/06 04:24:10;;;;;;;16.52;11.68;;;;;;;;;;4900289;29;20048;-47
2021/09/06 04:26:36;;;;;;;14.55;11.73;;;;;;;;;;4909695;29;20041;-46
2021/09/06 04:29:05;;;;;;;17.27;11.68;;;;;;;;;;4897627;29;20060;-45
2021/09/06 04:31:32;;;;;;;14.13;11.73;;;;;;;;;;4894813;29;20415;-45
2021/09/06 04:33:59;;;;;;;17.23;12.30;;;;;;;;;;4881424;29;20052;-47
2021/09/06 04:36:29;;;;;;;16.00;12.30;;;;;;;;;;4894072;29;20119;-44
2021/09/06 04:38:58;;;;;;;16.30;12.35;;;;;;;;;;4894291;29;20073;-44
2021/09/06 04:41:26;;;;;;;13.80;11.27;;;;;;;;;;4899202;29;20040;-47
2021/09/06 04:43:54;;;;;;;13.70;10.93;;;;;;;;;;4925840;29;20063;-48
2021/09/06 04:46:22;;;;;;;17.75;13.13;;;;;;;;;;4908200;29;20055;-49
2021/09/06 04:48:50;;;;;;;16.48;12.50;;;;;;;;;;4881823;29;20060;-47
2021/09/06 04:51:19;;;;;;;18.77;11.75;;;;;;;;;;4897589;29;20044;-47
2021/09/06 04:53:46;;;;;;;15.55;11.60;;;;;;;;;;4915678;29;20052;-47
2021/09/06 04:56:16;;;;;;;17.05;12.18;;;;;;;;;;4908799;29;20044;-47
2021/09/06 04:58:43;;;;;;;16.40;11.68;;;;;;;;;;4896694;29;20435;-46
2021/09/06 05:01:11;;;;;;;18.70;12.35;;;;;;;;;;4865802;29;20127;-45
2021/09/06 05:03:38;;;;;;;16.83;11.38;;;;;;;;;;4917557;23;20068;-45
2021/09/06 05:06:08;;;;;;;14.98;11.40;;;;;;;;;;4911849;29;20423;-47
2021/09/06 05:08:35;;;;;;;15.63;11.77;;;;;;;;;;4935359;29;20126;-47
2021/09/06 05:11:02;;;;;;;17.58;11.65;;;;;;;;;;4933017;29;20122;-47
2021/09/06 05:13:31;;;;;;;17.30;12.70;;;;;;;;;;4909826;29;20041;-46
2021/09/06 05:15:59;;;;;;;18.85;13.00;;;;;;;;;;4899727;29;20148;-47
2021/09/06 05:18:26;;;;;;;14.88;11.43;;;;;;;;;;4899517;29;20047;-49
2021/09/06 05:20:56;;;;;;;15.27;11.30;;;;;;;;;;4912465;29;20048;-48
2021/09/06 05:23:23;;;;;;;17.00;12.13;;;;;;;;;;4911351;29;20044;-47
2021/09/06 05:25:50;;;;;;;16.55;11.73;;;;;;;;;;4897401;29;20045;-49
2021/09/06 05:28:21;;;;;;;16.73;11.82;;;;;;;;;;4914915;29;20136;-49
2021/09/06 05:30:48;;;;;;;17.10;12.30;;;;;;;;;;4913536;29;20131;-47
2021/09/06 05:33:16;;;;;;;16.70;12.00;;;;;;;;;;4894908;29;20052;-51
2021/09/06 05:35:46;;;;;;;14.10;11.23;;;;;;;;;;4910047;29;20050;-48
2021/09/06 05:38:14;;;;;;;17.02;12.40;;;;;;;;;;4915524;29;20036;-48
2021/09/06 05:41:10;;;;;;;19.73;12.82;;;;;;;;;;4923075;29;20493;-48
2021/09/06 05:43:36;;;;;;;18.58;14.13;;;;;;;;;;4908376;29;20040;-48
2021/09/06 05:46:04;;;;;;;15.38;12.00;;;;;;;;;;4913585;29;20068;-48
2021/09/06 05:48:32;;;;;;;17.70;12.35;;;;;;;;;;4908694;29;20042;-46
2021/09/06 05:50:59;;;;;;;17.15;12.35;;;;;;;;;;4902093;29;20072;-46
2021/09/06 05:53:44;;;;;;;16.80;11.57;;;;;;;;;;4899068;29;20487;-46
2021/09/06 05:56:12;;;;;;;15.38;12.13;;;;;;;;;;4899244;29;20105;-47
2021/09/06 05:58:39;;;;;;;14.77;12.07;;;;;;;;;;4898598;29;20067;-47
2021/09/06 06:01:06;;;;;;;16.88;12.80;;;;;;;;;;4903846;29;20466;-47
2021/09/06 06:03:36;;;;;;;15.60;11.50;;;;;;;;;;4908777;29;20041;-49
2021/09/06 06:06:06;;;;;;;16.02;11.98;;;;;;;;;;4900257;29;20083;-48
2021/09/06 06:08:34;;;;;;;15.75;12.10;;;;;;;;;;4912281;29;20499;-47
2021/09/06 06:11:02;;;;;;;16.60;11.88;;;;;;;;;;4898719;29;20051;-48
2021/09/06 06:13:30;;;;;;;15.20;12.55;;;;;;;;;;4909687;29;20045;-48
2021/09/06 06:15:57;;;;;;;16.67;12.52;;;;;;;;;;4896011;29;20081;-47
2021/09/06 06:18:35;;;;;;;15.35;11.75;;;;;;;;;;4894848;29;20050;-51
2021/09/06 06:21:04;;;;;;;15.30;12.10;;;;;;;;;;4900686;29;20045;-49
2021/09/06 06:23:52;;;;;;;20.17;12.30;;;;;;;;;;4901043;29;20127;-46
2021/09/06 06:26:45;;;;;;;16.50;12.45;;;;;;;;;;4906418;29;20056;-47
2021/09/06 06:29:12;;;;;;;17.25;12.75;;;;;;;;;;4905761;29;20040;-51
2021/09/06 06:31:42;;;;;;;19.45;13.45;;;;;;;;;;4916808;29;20499;-48
2021/09/06 06:34:10;;;;;;;17.73;12.65;;;;;;;;;;4915621;29;20051;-47
2021/09/06 06:36:38;;;;;;;16.33;12.88;;;;;;;;;;4905871;29;20040;-48
2021/09/06 06:39:14;;;;;;;17.20;13.00;;;;;;;;;;4909239;29;20048;-49
2021/09/06 06:41:46;;;;;;;17.48;12.98;;;;;;;;;;4893049;29;20095;-48
2021/09/06 06:44:13;;;;;;;16.92;13.52;;;;;;;;;;4903197;29;20051;-48
2021/09/06 06:46:40;;;;;;;15.93;12.73;;;;;;;;;;4909842;29;20041;-48
2021/09/06 06:49:08;;;;;;;18.42;14.07;;;;;;;;;;4916010;29;20406;-48
2021/09/06 06:51:35;;;;;;;18.52;13.90;;;;;;;;;;4892258;29;20037;-48
2021/09/06 06:54:03;;;;;;;17.13;12.65;;;;;;;;;;4909842;29;20055;-47
2021/09/06 06:56:34;;;;;;;17.05;13.70;;;;;;;;;;4901226;29;20043;-50
2021/09/06 06:59:06;;;;;;;45.47;13.82;;;;;;;;;;4913721;29;20033;-48
2021/09/06 07:01:33;;;;;;;17.23;13.13;;;;;;;;;;4912936;29;20068;-48
2021/09/06 07:04:01;;;;;;;17.70;13.90;;;;;;;;;;4914425;29;20044;-47
2021/09/06 07:06:31;;;;;;;19.90;14.35;;;;;;;;;;4903167;29;20520;-47
2021/09/06 07:08:58;;;;;;;18.17;13.20;;;;;;;;;;4917456;29;20044;-48
2021/09/06 07:11:25;;;;;;;17.92;13.52;;;;;;;;;;4915577;29;20112;-51
2021/09/06 07:13:56;;;;;;;18.65;13.63;;;;;;;;;;4899207;29;20048;-50
2021/09/06 07:16:23;;;;;;;18.98;14.18;;;;;;;;;;4914013;29;20052;-47
2021/09/06 07:18:51;;;;;;;17.52;13.32;;;;;;;;;;4914250;29;20083;-48
2021/09/06 07:21:19;;;;;;;17.10;14.25;;;;;;;;;;4902555;29;20419;-46
2021/09/06 07:23:46;;;;;;;18.67;13.88;;;;;;;;;;4899595;29;20047;-47
2021/09/06 07:26:14;;;;;;;22.67;13.88;;;;;;;;;;4906385;29;20398;-48
2021/09/06 07:28:41;;;;;;;17.25;13.23;;;;;;;;;;4916835;29;20044;-50
2021/09/06 07:31:10;;;;;;;18.30;12.52;;;;;;;;;;4909355;29;20044;-47
2021/09/06 07:33:37;;;;;;;20.25;13.38;;;;;;;;;;4907960;29;20066;-49
2021/09/06 07:36:05;;;;;;;18.27;14.13;;;;;;;;;;4898641;29;20075;-46
2021/09/06 07:38:32;;;;;;;19.50;14.18;;;;;;;;;;4897820;29;20517;-48
2021/09/06 07:40:59;;;;;;;21.17;12.73;;;;;;;;;;4903206;29;20085;-50
2021/09/06 07:43:26;;;;;;;20.95;13.77;;;;;;;;;;4900171;29;20115;-47
2021/09/06 07:45:54;;;;;;;20.73;13.77;;;;;;;;;;4901986;29;20119;-47
2021/09/06 07:48:21;;;;;;;18.45;13.30;;;;;;;;;;4916748;29;20446;-50
2021/09/06 07:50:53;;;;;;;17.90;13.40;;;;;;;;;;4901535;29;20041;-46
2021/09/06 07:53:22;;;;;;;20.05;14.35;;;;;;;;;;4906133;29;20044;-49
2021/09/06 07:55:50;;;;;;;21.13;13.18;;;;;;;;;;4913141;29;20048;-48
2021/09/06 07:58:20;;;;;;;16.77;12.13;;;;;;;;;;4913264;29;20040;-48
2021/09/06 08:00:47;;;;;;;17.75;12.10;;;;;;;;;;4900736;29;20780;-47
2021/09/06 08:03:15;;;;;;;16.88;12.43;;;;;;;;;;4908896;29;20120;-47
2021/09/06 08:05:42;;;;;;;15.82;12.05;;;;;;;;;;4913952;29;20436;-48
2021/09/06 08:08:14;;;;;;;16.20;11.95;;;;;;;;;;4916405;29;20044;-47
2021/09/06 08:10:42;;;;;;;13.88;11.45;;;;;;;;;;4915779;29;20048;-47
2021/09/06 08:13:24;;;;;;;18.08;12.40;;;;;;;;;;5060948;28;20412;-48
2021/09/06 08:15:51;;;;;;;17.83;11.45;;;;;;;;;;5047503;28;20095;-48
2021/09/06 08:18:18;;;;;;;17.42;11.25;;;;;;;;;;5047079;28;20045;-47
2021/09/06 08:20:50;;;;;;;17.45;10.93;;;;;;;;;;5048565;28;20048;-47
2021/09/06 08:23:18;;;;;;;15.05;10.93;;;;;;;;;;5053071;28;20033;-47
2021/09/06 08:25:47;;;;;;;13.70;10.68;;;;;;;;;;5062719;28;20553;-49
2021/09/06 08:28:14;;;;;;;14.13;11.25;;;;;;;;;;5060527;28;20459;-47
2021/09/06 08:30:42;;;;;;;14.38;10.45;;;;;;;;;;5054075;28;20041;-48
2021/09/06 08:33:09;;;;;;;14.57;11.07;;;;;;;;;;5060661;28;20041;-48
2021/09/06 08:35:36;;;;;;;17.23;11.07;;;;;;;;;;5061178;28;20111;-48
2021/09/06 08:38:04;;;;;;;13.10;10.60;;;;;;;;;;5045958;28;20046;-50
2021/09/06 08:40:31;;;;;;;12.93;10.43;;;;;;;;;;5060422;28;20041;-47
2021/09/06 08:43:01;;;;;;;14.18;10.55;;;;;;;;;;5052338;28;20083;-48
2021/09/06 08:45:30;;;;;;;13.55;10.00;;;;;;;;;;5057570;28;20036;-48
2021/09/06 08:47:57;;;;;;;15.48;10.27;;;;;;;;;;5078236;28;20098;-49
2021/09/06 08:50:25;;;;;;;14.18;10.13;;;;;;;;;;5051085;28;20064;-49
2021/09/06 08:52:52;;;;;;;13.98;10.40;;;;;;;;;;5047946;28;20099;-48
2021/09/06 08:55:19;;;;;;;14.20;10.18;;;;;;;;;;5047354;28;20124;-48
2021/09/06 08:57:49;;;;;;;12.07;9.73;;;;;;;;;;5075238;28;20071;-49
2021/09/06 09:00:24;;;;;;;13.90;9.82;;;;;;;;;;5052747;28;20116;-46
2021/09/06 09:03:18;;;;;;;14.27;10.35;;;;;;;;;;5060082;28;20171;-49
2021/09/06 09:06:01;;;;;;;11.40;9.43;;;;;;;;;;5061762;28;20045;-47
2021/09/06 09:08:51;;;;;;;11.50;9.60;;;;;;;;;;5055145;28;20483;-49
2021/09/06 09:11:30;;;;;;;11.18;8.80;;;;;;;;;;5049389;28;20422;-48
2021/09/06 09:14:21;;;;;;;13.10;10.15;;;;;;;;;;5051092;28;20064;-48
2021/09/06 09:17:10;;;;;;;12.35;9.80;;;;;;;;;;5067467;28;20029;-47
2021/09/06 09:19:41;;;;;;;18.50;12.20;;;;;;;;;;5059250;28;20506;-50
2021/09/06 09:22:30;;;;;;;12.27;9.13;;;;;;;;;;5055205;28;20038;-48
2021/09/06 09:25:17;;;;;;;12.70;9.02;;;;;;;;;;5042370;28;20061;-50
2021/09/06 09:28:29;;;;;;;13.52;9.15;;;;;;;;;;5033412;28;20498;-50
2021/09/06 09:31:24;;;;;;;12.00;8.50;;;;;;;;;;5032207;28;20138;-48
2021/09/06 09:34:10;;;;;;;12.43;8.68;;;;;;;;;;5046377;28;20038;-50
2021/09/06 09:37:01;;;;;;;12.68;8.43;;;;;;;;;;5044518;28;20047;-48
2021/09/06 09:39:31;;;;;;;10.43;8.32;;;;;;;;;;5037663;28;20046;-48
2021/09/06 09:42:08;;;;;;;10.73;8.43;;;;;;;;;;5047971;28;20528;-50
2021/09/06 09:44:48;;;;;;;11.05;8.93;;;;;;;;;;5037194;28;20129;-49
2021/09/06 09:47:54;;;;;;;13.50;8.73;;;;;;;;;;5032508;28;20136;-52
2021/09/06 09:50:23;;;;;;;11.60;8.73;;;;;;;;;;5050202;28;20107;-52
2021/09/06 09:52:52;;;;;;;12.18;8.75;;;;;;;;;;5050985;28;20053;-51
2021/09/06 09:55:20;;;;;;;10.90;8.65;;;;;;;;;;5046909;28;20059;-49
2021/09/06 09:57:47;;;;;;;11.55;8.10;;;;;;;;;;5053203;28;20136;-49
2021/09/06 10:00:15;;;;;;;10.98;9.13;;;;;;;;;;5042331;28;20037;-49
2021/09/06 10:02:44;;;;;;;12.15;9.43;;;;;;;;;;5032947;28;20046;-47
2021/09/06 10:05:12;;;;;;;12.10;8.93;;;;;;;;;;5045324;28;20037;-54
2021/09/06 10:07:41;;;;;;;13.77;11.07;;;;;;;;;;5053408;28;20067;-48
2021/09/06 10:10:35;;;;;;;11.73;9.77;;;;;;;;;;5049337;28;20458;-49
2021/09/06 10:13:05;;;;;;;15.50;10.93;;;;;;;;;;5042332;28;20052;-46
2021/09/06 10:15:34;;;;;;;12.63;10.32;;;;;;;;;;5049193;28;20111;-45
2021/09/06 10:18:14;;;;;;;15.23;11.48;;;;;;;;;;5041292;28;20103;-47
2021/09/06 10:20:41;;;;;;;14.13;10.30;;;;;;;;;;5049262;28;20029;-47
2021/09/06 10:23:11;;;;;;;13.68;10.55;;;;;;;;;;5039506;28;20140;-47
2021/09/06 10:25:39;;;;;;;15.88;11.35;;;;;;;;;;5050465;28;20059;-49
2021/09/06 10:28:08;;;;;;;14.80;11.07;;;;;;;;;;5052493;28;20095;-48
2021/09/06 10:30:38;;;;;;;12.88;10.02;;;;;;;;;;5037164;28;20046;-52
2021/09/06 10:33:07;;;;;;;15.98;10.55;;;;;;;;;;5032678;28;20088;-53
2021/09/06 10:35:35;;;;;;;15.93;11.18;;;;;;;;;;5032549;28;20681;-46
2021/09/06 10:38:07;;;;;;;16.65;11.30;;;;;;;;;;5033092;28;20057;-51
2021/09/06 10:40:36;;;;;;;17.25;11.80;;;;;;;;;;5047982;28;20418;-49
2021/09/06 10:43:20;;;;;;;14.05;10.18;;;;;;;;;;5045656;28;20509;-48
2021/09/06 10:45:49;;;;;;;13.02;10.50;;;;;;;;;;5050113;28;20041;-46
2021/09/06 10:48:17;;;;;;;12.85;10.60;;;;;;;;;;5052445;28;20516;-47
2021/09/06 10:50:45;;;;;;;14.68;11.25;;;;;;;;;;5036002;28;20037;-45
2021/09/06 10:53:16;;;;;;;13.30;11.07;;;;;;;;;;5031953;28;20072;-47
2021/09/06 10:55:51;;;;;;;12.68;10.55;;;;;;;;;;5038283;28;20116;-47
2021/09/06 10:58:22;;;;;;;13.88;10.93;;;;;;;;;;5052446;28;20055;-49
2021/09/06 11:00:58;;;;;;;14.15;10.68;;;;;;;;;;5034479;28;20549;-48
2021/09/06 11:03:37;;;;;;;11.98;10.15;;;;;;;;;;5035590;28;20367;-48
2021/09/06 11:06:07;;;;;;;12.82;9.95;;;;;;;;;;5047765;28;20049;-49
2021/09/06 11:08:35;;;;;;;13.95;10.90;;;;;;;;;;5052307;28;20114;-50
2021/09/06 11:11:07;;;;;;;13.25;11.15;;;;;;;;;;5033776;28;20422;-51
2021/09/06 11:13:45;;;;;;;14.55;10.00;;;;;;;;;;5037764;28;20037;-48
2021/09/06 11:16:16;;;;;;;12.00;9.40;;;;;;;;;;5051168;28;20041;-48
2021/09/06 11:18:50;;;;;;;12.23;9.02;;;;;;;;;;5034644;28;20115;-49
2021/09/06 11:21:20;;;;;;;14.95;10.65;;;;;;;;;;5050161;28;20039;-49
2021/09/06 11:23:47;;;;;;;12.10;9.18;;;;;;;;;;5035646;28;20125;-48
2021/09/06 11:26:25;;;;;;;12.82;8.45;;;;;;;;;;5032321;28;20052;-49
2021/09/06 11:28:53;;;;;;;14.65;10.00;;;;;;;;;;5031142;28;20399;-49
2021/09/06 11:31:25;;;;;;;13.32;9.50;;;;;;;;;;5032176;28;20132;-49
2021/09/06 11:33:59;;;;;;;14.35;10.32;;;;;;;;;;5046118;28;20052;-48
2021/09/06 11:36:27;;;;;;;12.63;9.88;;;;;;;;;;5051769;28;20064;-52
2021/09/06 11:38:53;;;;;;;12.02;9.85;;;;;;;;;;5051944;28;20120;-47
2021/09/06 11:41:22;;;;;;;13.18;9.30;;;;;;;;;;5032379;28;20045;-50
2021/09/06 11:43:49;;;;;;;12.38;8.75;;;;;;;;;;5031774;28;20436;-47
2021/09/06 11:46:16;;;;;;;12.07;8.93;;;;;;;;;;5049423;28;20056;-47
2021/09/06 11:48:44;;;;;;;13.48;8.57;;;;;;;;;;5051727;28;20056;-48
2021/09/06 11:51:11;;;;;;;9.38;8.25;;;;;;;;;;5033997;28;20041;-47
2021/09/06 11:53:39;;;;;;;11.88;9.52;;;;;;;;;;5031258;28;20053;-47
2021/09/06 11:56:13;;;;;;;10.65;9.20;;;;;;;;;;5031660;28;20071;-48
2021/09/06 11:58:46;;;;;;;11.90;8.40;;;;;;;;;;5033099;28;20124;-47
2021/09/06 12:01:16;;;;;;;13.07;9.07;;;;;;;;;;5040182;28;20048;-48
2021/09/06 12:03:44;;;;;;;14.43;10.00;;;;;;;;;;5031202;28;20041;-49
2021/09/06 12:06:13;;;;;;;11.23;9.10;;;;;;;;;;5031675;28;20107;-48
2021/09/06 12:08:52;;;;;;;12.27;9.02;;;;;;;;;;5030958;28;20052;-46
2021/09/06 12:11:39;;;;;;;11.70;8.55;;;;;;;;;;5031716;28;20041;-49
2021/09/06 12:14:07;;;;;;;10.88;8.07;;;;;;;;;;5030528;28;20700;-47
2021/09/06 12:16:37;;;;;;;11.07;8.65;;;;;;;;;;5031283;28;20176;-47
2021/09/06 12:19:17;;;;;;;8.68;7.47;;;;;;;;;;5044136;28;20095;-46
2021/09/06 12:21:45;;;;;;;8.50;7.32;;;;;;;;;;5030613;28;20049;-47
2021/09/06 12:24:12;;;;;;;9.10;7.45;;;;;;;;;;5048937;28;20041;-47
2021/09/06 12:26:38;;;;;;;8.45;7.28;;;;;;;;;;5051103;28;20060;-47
2021/09/06 12:29:05;;;;;;;10.52;7.45;;;;;;;;;;5037473;28;20422;-50
2021/09/06 12:31:43;;;;;;;9.23;7.65;;;;;;;;;;5037183;28;20037;-47
2021/09/06 12:34:11;;;;;;;10.40;7.93;;;;;;;;;;5044373;28;20049;-47
2021/09/06 12:36:38;;;;;;;8.90;7.82;;;;;;;;;;5031174;28;20041;-50
2021/09/06 12:39:05;;;;;;;10.13;6.70;;;;;;;;;;5043929;28;20513;-47
2021/09/06 12:41:31;;;;;;;8.23;7.20;;;;;;;;;;5030006;28;20045;-49
2021/09/06 12:43:58;;;;;;;8.43;7.40;;;;;;;;;;5046194;28;20130;-49
2021/09/06 12:46:26;;;;;;;8.80;6.72;;;;;;;;;;5051040;28;20041;-49
2021/09/06 12:48:53;;;;;;;6.90;5.88;;;;;;;;;;5036738;28;20041;-47
2021/09/06 12:51:20;;;;;;;8.18;6.15;;;;;;;;;;5035328;28;20473;-47
2021/09/06 12:53:46;;;;;;;9.20;6.03;;;;;;;;;;5044313;28;20037;-47
2021/09/06 12:56:13;;;;;;;8.35;6.18;;;;;;;;;;5050793;28;20136;-48
2021/09/06 12:58:40;;;;;;;8.73;5.57;;;;;;;;;;5048560;28;20030;-48
2021/09/06 13:01:06;;;;;;;7.15;6.38;;;;;;;;;;5036087;28;20483;-48
2021/09/06 13:03:33;;;;;;;6.68;5.80;;;;;;;;;;5044012;28;20512;-47
2021/09/06 13:06:01;;;;;;;10.02;6.43;;;;;;;;;;5034590;28;20041;-51
2021/09/06 13:08:28;;;;;;;9.50;5.88;;;;;;;;;;5034574;28;20128;-50
2021/09/06 13:10:55;;;;;;;6.68;5.88;;;;;;;;;;5044956;28;20045;-49
2021/09/06 13:13:22;;;;;;;6.40;5.68;;;;;;;;;;5046559;28;20047;-48
2021/09/06 13:15:48;;;;;;;7.55;6.05;;;;;;;;;;5039815;28;20147;-48
2021/09/06 13:18:17;;;;;;;7.65;6.10;;;;;;;;;;5042952;28;20460;-48
2021/09/06 13:20:44;;;;;;;10.18;5.78;;;;;;;;;;5048711;28;20393;-48
2021/09/06 13:23:11;;;;;;;7.63;5.85;;;;;;;;;;5045821;28;20041;-51
2021/09/06 13:25:37;;;;;;;6.93;6.22;;;;;;;;;;5034269;28;20048;-49
2021/09/06 13:28:04;;;;;;;7.85;6.45;;;;;;;;;;5040047;28;20494;-48
2021/09/06 13:30:31;;;;;;;8.32;5.93;;;;;;;;;;5046796;28;20359;-48
2021/09/06 13:32:58;;;;;;;6.65;5.75;;;;;;;;;;5037833;28;20060;-48
2021/09/06 13:35:24;;;;;;;10.43;6.53;;;;;;;;;;5039421;28;20045;-48
2021/09/06 13:37:52;;;;;;;6.90;5.95;;;;;;;;;;5052588;28;20037;-52
2021/09/06 13:40:19;;;;;;;8.50;6.13;;;;;;;;;;5048384;28;20440;-47
2021/09/06 13:42:46;;;;;;;8.68;5.65;;;;;;;;;;5036628;28;20388;-51
2021/09/06 13:45:12;;;;;;;6.95;5.78;;;;;;;;;;5034977;28;20041;-47
2021/09/06 13:47:39;;;;;;;8.18;6.47;;;;;;;;;;5033681;28;20053;-48
2021/09/06 13:50:06;;;;;;;7.20;6.03;;;;;;;;;;5036229;28;20485;-49
2021/09/06 13:52:34;;;;;;;7.22;5.65;;;;;;;;;;5044352;28;20048;-48
2021/09/06 13:55:00;;;;;;;7.43;5.15;;;;;;;;;;5051503;28;20091;-47
2021/09/06 13:57:27;;;;;;;6.88;5.50;;;;;;;;;;5033392;28;20509;-50
2021/09/06 13:59:55;;;;;;;7.05;5.50;;;;;;;;;;5034041;28;20120;-47
2021/09/06 14:02:22;;;;;;;7.72;5.20;;;;;;;;;;5051635;28;20509;-46
2021/09/06 14:04:49;;;;;;;6.63;5.57;;;;;;;;;;5033676;28;20088;-47
2021/09/06 14:07:15;;;;;;;8.55;5.47;;;;;;;;;;5033281;28;20463;-47
2021/09/06 14:09:42;;;;;;;9.88;6.18;;;;;;;;;;5050603;28;20052;-46
2021/09/06 14:12:11;;;;;;;9.82;6.32;;;;;;;;;;5033574;28;20163;-48
2021/09/06 14:14:39;;;;;;;7.40;5.32;;;;;;;;;;5049587;28;20056;-47
2021/09/06 14:17:06;;;;;;;8.40;5.70;;;;;;;;;;5052862;28;20479;-49
2021/09/06 14:19:33;;;;;;;7.35;5.80;;;;;;;;;;5052901;28;20521;-48
2021/09/06 14:22:00;;;;;;;6.85;5.40;;;;;;;;;;5035655;28;20045;-50
2021/09/06 14:24:27;;;;;;;6.90;5.32;;;;;;;;;;5049911;28;20083;-48
2021/09/06 14:26:53;;;;;;;8.10;5.90;;;;;;;;;;5051070;28;20067;-48
2021/09/06 14:29:20;;;;;;;8.65;5.35;;;;;;;;;;5042644;28;20041;-49
2021/09/06 14:31:48;;;;;;;6.65;5.70;;;;;;;;;;5042774;28;20052;-49
2021/09/06 14:34:15;;;;;;;7.53;5.60;;;;;;;;;;5041602;28;20037;-49
2021/09/06 14:36:42;;;;;;;6.70;5.65;;;;;;;;;;5052774;28;20051;-50
2021/09/06 14:39:10;;;;;;;7.07;5.32;;;;;;;;;;5051244;28;20044;-49